Terminal Aerodrome Forecast
Issued by NWS

Home | Current Version | Previous Version | Text Only | Print | Product List | Glossary On
Versions: 1 2 3 4 5 6 7 8 9 10 11 12 13
639
FTUS44 KMAF 222320
TAFFST
TAF
KFST 222320Z 2300/2324 14016G26KT P6SM SCT040
     FM230200 14017G27KT P6SM SKC
     FM230700 15015KT P6SM BKN020
     FM231200 14014KT P6SM OVC090
     FM231400 15020KT P6SM BKN019
     FM231700 15021G31KT P6SM SCT035 OVC250=

USA.gov is the U.S. government's official web portal to all federal, state and local government web resources and services.